Time;durP1;ratioP1;P1;durP2;ratioP2;P2;SDS_P1;SDS_P2;PMS_P1;PMS_P2;Temp;Humidity;BMP_temperature;BMP_pressure;BME280_temperature;BME280_humidity;BME280_pressure;Samples;Min_cycle;Max_cycle;Signal;HPM_P1;HPM_P2
2023/06/25 00:00:56;;;;;;;6.13;5.27;;;22.90;55.20;;;;;;4993713;28;20605;-78
2023/06/25 00:03:23;;;;;;;6.07;5.00;;;22.80;55.30;;;;;;4996508;28;20998;-78
2023/06/25 00:05:49;;;;;;;5.90;4.70;;;22.80;55.60;;;;;;4993872;28;21062;-79
2023/06/25 00:08:16;;;;;;;6.10;4.67;;;22.80;55.80;;;;;;4994650;28;20744;-80
2023/06/25 00:10:42;;;;;;;5.30;4.80;;;22.70;56.10;;;;;;5006846;28;20661;-79
2023/06/25 00:13:08;;;;;;;6.10;4.33;;;22.70;56.30;;;;;;5011749;28;21198;-79
2023/06/25 00:15:33;;;;;;;5.20;4.17;;;22.70;56.50;;;;;;5030148;28;20676;-79
2023/06/25 00:17:59;;;;;;;4.80;4.03;;;22.70;56.70;;;;;;5013457;28;20710;-79
2023/06/25 00:20:26;;;;;;;4.90;3.13;;;22.60;56.90;;;;;;5030700;28;20212;-79
2023/06/25 00:22:53;;;;;;;4.83;3.63;;;22.60;57.20;;;;;;5012731;28;20605;-79
2023/06/25 00:25:18;;;;;;;3.87;3.03;;;22.60;57.90;;;;;;4996137;28;20631;-78
2023/06/25 00:27:48;;;;;;;3.73;2.70;;;22.60;57.50;;;;;;5030480;28;20616;-78
2023/06/25 00:30:15;;;;;;;4.20;3.00;;;22.60;57.60;;;;;;5030532;28;20166;-78
2023/06/25 00:32:41;;;;;;;3.20;2.30;;;22.60;57.70;;;;;;5012316;28;20680;-77
2023/06/25 00:35:08;;;;;;;4.47;3.00;;;22.60;57.90;;;;;;5030598;28;20645;-78
2023/06/25 00:37:36;;;;;;;4.90;3.20;;;22.60;58.20;;;;;;5015761;28;20710;-79
2023/06/25 00:40:04;;;;;;;4.67;2.97;;;22.50;58.20;;;;;;5020851;28;21151;-81
2023/06/25 00:42:42;;;;;;;7.77;3.23;;;22.50;58.50;;;;;;4983063;28;20626;-78
2023/06/25 00:45:13;;;;;;;4.20;3.23;;;22.50;59.10;;;;;;5033561;28;20649;-78
2023/06/25 00:47:42;;;;;;;4.43;3.87;;;22.50;59.40;;;;;;5033668;28;20611;-79
2023/06/25 00:50:11;;;;;;;3.70;3.10;;;22.40;59.10;;;;;;5034174;28;20978;-78
2023/06/25 00:52:40;;;;;;;5.40;3.73;;;22.40;59.20;;;;;;5032910;28;20591;-78
2023/06/25 00:55:09;;;;;;;5.70;3.20;;;22.40;59.50;;;;;;5039612;28;20584;-79
2023/06/25 00:57:35;;;;;;;7.63;4.80;;;22.40;59.80;;;;;;5047909;28;20619;-79
2023/06/25 01:00:04;;;;;;;5.53;3.53;;;22.40;60.10;;;;;;5048036;28;20614;-79
2023/06/25 01:02:43;;;;;;;5.63;4.60;;;22.40;60.30;;;;;;5066103;28;20571;-78
2023/06/25 01:05:23;;;;;;;6.00;4.37;;;22.40;60.70;;;;;;5056936;28;20628;-78
2023/06/25 01:07:50;;;;;;;4.90;4.30;;;22.40;61.90;;;;;;4981053;28;20616;-77
2023/06/25 01:10:16;;;;;;;6.20;4.27;;;22.40;61.30;;;;;;4976790;28;20573;-77
2023/06/25 01:12:42;;;;;;;5.20;4.13;;;22.40;61.80;;;;;;4976203;28;20581;-77
2023/06/25 01:15:11;;;;;;;5.57;4.27;;;22.40;62.20;;;;;;4993356;28;20640;-78
2023/06/25 01:17:41;;;;;;;6.87;4.80;;;22.30;62.70;;;;;;5031194;28;21111;-78
2023/06/25 01:20:11;;;;;;;7.00;5.20;;;22.30;64.00;;;;;;4979486;28;21049;-78
2023/06/25 01:22:38;;;;;;;4.57;4.10;;;22.30;64.30;;;;;;4995468;28;20576;-78
2023/06/25 01:25:05;;;;;;;5.33;4.20;;;22.30;65.00;;;;;;4995420;28;20640;-77
2023/06/25 01:27:36;;;;;;;5.90;4.33;;;22.30;65.30;;;;;;5008524;28;20707;-78
2023/06/25 01:30:03;;;;;;;6.40;4.40;;;22.30;65.70;;;;;;5009342;28;20594;-78
2023/06/25 01:32:29;;;;;;;5.63;3.70;;;22.30;66.10;;;;;;5002881;28;20623;-78
2023/06/25 01:34:55;;;;;;;4.70;4.20;;;22.30;66.60;;;;;;5000022;28;20620;-78
2023/06/25 01:37:21;;;;;;;5.27;4.60;;;22.30;67.30;;;;;;4999762;28;20696;-78
2023/06/25 01:39:52;;;;;;;5.73;4.30;;;22.30;68.00;;;;;;5000487;28;20545;-78
2023/06/25 01:42:18;;;;;;;5.73;4.13;;;22.30;69.50;;;;;;5015492;28;20189;-78
2023/06/25 01:44:44;;;;;;;7.77;5.20;;;22.30;69.60;;;;;;5020281;28;20631;-78
2023/06/25 01:47:09;;;;;;;5.50;4.30;;;22.20;70.70;;;;;;5019224;28;20611;-78
2023/06/25 01:49:35;;;;;;;6.93;4.10;;;22.20;71.50;;;;;;5019639;28;20273;-79
2023/06/25 01:52:02;;;;;;;7.13;4.20;;;22.20;72.60;;;;;;5038349;28;20256;-78
2023/06/25 01:54:28;;;;;;;5.70;4.30;;;22.20;72.90;;;;;;5036077;28;20259;-78
2023/06/25 01:56:57;;;;;;;6.53;4.73;;;22.20;73.80;;;;;;5053771;28;20580;-78
2023/06/25 01:59:23;;;;;;;5.57;4.67;;;22.10;75.30;;;;;;5019303;28;20593;-78
2023/06/25 02:01:48;;;;;;;5.50;4.87;;;22.10;76.20;;;;;;5027113;28;20599;-78
2023/06/25 02:04:14;;;;;;;6.23;4.77;;;22.10;76.50;;;;;;5034768;28;20204;-78
2023/06/25 02:06:40;;;;;;;6.47;5.83;;;22.00;78.70;;;;;;5035500;28;20264;-78
2023/06/25 02:09:07;;;;;;;5.17;4.10;;;22.00;80.50;;;;;;5035121;28;20781;-78
2023/06/25 02:11:35;;;;;;;7.10;4.67;;;22.00;81.30;;;;;;5035090;28;20177;-78
2023/06/25 02:14:01;;;;;;;6.20;5.43;;;22.00;82.20;;;;;;5053149;28;20571;-79
2023/06/25 02:16:27;;;;;;;6.00;5.17;;;21.90;84.60;;;;;;5019241;28;20586;-79
2023/06/25 02:18:53;;;;;;;6.80;4.50;;;21.90;84.30;;;;;;5035431;28;21165;-79
2023/06/25 02:21:19;;;;;;;6.00;4.50;;;21.90;85.00;;;;;;5034306;28;20173;-78
2023/06/25 02:23:45;;;;;;;4.70;3.93;;;21.90;85.00;;;;;;5035726;28;20540;-78
2023/06/25 02:26:10;;;;;;;5.20;3.50;;;21.90;85.50;;;;;;5018484;28;20631;-78
2023/06/25 02:28:36;;;;;;;5.20;4.50;;;21.90;86.00;;;;;;5038252;28;20197;-78
2023/06/25 02:31:02;;;;;;;4.97;3.70;;;21.80;87.20;;;;;;5052348;28;20196;-78
2023/06/25 02:33:29;;;;;;;5.87;4.10;;;21.80;87.30;;;;;;5018841;28;20172;-77
2023/06/25 02:35:55;;;;;;;5.50;4.10;;;21.80;88.10;;;;;;5006627;28;20591;-78
2023/06/25 02:38:21;;;;;;;5.70;4.03;;;21.80;88.90;;;;;;5014790;28;20203;-77
2023/06/25 02:40:46;;;;;;;5.20;3.80;;;21.80;90.50;;;;;;5014966;28;20588;-78
2023/06/25 02:43:12;;;;;;;5.63;4.17;;;21.80;90.30;;;;;;5014878;28;20265;-78
2023/06/25 02:45:38;;;;;;;5.13;4.10;;;21.80;90.70;;;;;;5015194;28;20267;-78
2023/06/25 02:48:05;;;;;;;6.87;5.43;;;21.80;90.60;;;;;;5014978;28;20202;-78
2023/06/25 02:50:30;;;;;;;4.53;4.13;;;21.70;92.00;;;;;;4998472;28;20615;-78
2023/06/25 02:52:56;;;;;;;5.83;4.30;;;21.70;91.80;;;;;;4998230;28;20968;-78
2023/06/25 02:55:22;;;;;;;5.00;4.30;;;21.70;92.10;;;;;;4998991;28;20173;-78
2023/06/25 02:57:47;;;;;;;5.90;4.17;;;21.70;92.60;;;;;;4982407;28;20196;-78
2023/06/25 03:00:13;;;;;;;5.03;3.70;;;21.70;92.70;;;;;;5015211;28;20181;-77
2023/06/25 03:02:40;;;;;;;5.33;4.67;;;21.70;93.00;;;;;;4998421;28;20177;-78
2023/06/25 03:05:07;;;;;;;6.07;3.97;;;21.60;94.60;;;;;;5001239;28;20906;-78
2023/06/25 03:07:34;;;;;;;4.33;3.50;;;21.60;94.30;;;;;;5015074;28;20619;-79
2023/06/25 03:10:00;;;;;;;4.80;4.40;;;21.60;94.30;;;;;;4998244;28;20580;-79
2023/06/25 03:12:26;;;;;;;7.87;4.13;;;21.50;94.50;;;;;;5014549;28;20557;-79
2023/06/25 03:14:52;;;;;;;5.20;3.50;;;21.50;95.30;;;;;;5014941;28;20589;-78
2023/06/25 03:17:19;;;;;;;7.20;4.73;;;21.50;95.40;;;;;;4998324;28;20294;-78
2023/06/25 03:19:46;;;;;;;5.37;4.17;;;21.50;95.50;;;;;;4997612;28;20596;-78
2023/06/25 03:22:12;;;;;;;4.80;4.30;;;21.40;95.60;;;;;;4997530;28;20604;-78
2023/06/25 03:24:43;;;;;;;4.10;3.67;;;21.40;95.80;;;;;;5014395;28;21262;-79
2023/06/25 03:27:09;;;;;;;5.27;4.77;;;21.40;96.00;;;;;;5014207;28;20611;-77
2023/06/25 03:29:34;;;;;;;5.03;4.57;;;21.40;96.10;;;;;;5014874;28;20177;-78
2023/06/25 03:32:00;;;;;;;5.47;4.57;;;21.40;96.30;;;;;;5012607;28;20608;-78
2023/06/25 03:34:27;;;;;;;7.57;4.83;;;21.40;96.40;;;;;;4998251;28;20178;-78
2023/06/25 03:36:55;;;;;;;6.50;3.80;;;21.40;96.60;;;;;;5010425;28;20589;-78
2023/06/25 03:39:21;;;;;;;5.67;4.67;;;21.40;96.90;;;;;;5014309;28;20941;-78
2023/06/25 03:41:48;;;;;;;5.50;4.80;;;21.40;97.10;;;;;;4987924;28;20607;-79
2023/06/25 03:44:14;;;;;;;4.90;4.27;;;21.40;97.80;;;;;;4978758;28;20625;-79
2023/06/25 03:46:39;;;;;;;4.27;3.87;;;21.30;97.70;;;;;;4994824;28;20638;-79
2023/06/25 03:49:05;;;;;;;4.67;4.27;;;21.30;97.80;;;;;;4980285;28;20728;-79
2023/06/25 03:51:32;;;;;;;6.73;4.57;;;21.30;97.90;;;;;;4986053;28;20197;-79
2023/06/25 03:53:58;;;;;;;6.07;4.20;;;21.30;98.10;;;;;;5005053;28;20600;-79
2023/06/25 03:56:27;;;;;;;5.77;5.13;;;21.30;98.30;;;;;;5008671;28;20217;-78
2023/06/25 03:58:53;;;;;;;6.13;4.20;;;21.30;98.80;;;;;;5024184;28;21180;-79
2023/06/25 04:01:19;;;;;;;6.73;5.20;;;21.20;98.80;;;;;;5045025;22;20524;-74
2023/06/25 04:03:45;;;;;;;7.00;5.50;;;21.30;99.00;;;;;;5020498;28;20173;-74
2023/06/25 04:06:12;;;;;;;5.47;4.57;;;21.30;99.20;;;;;;5015724;28;20637;-74
2023/06/25 04:08:41;;;;;;;6.10;4.10;;;21.30;99.40;;;;;;5032410;28;20588;-74
2023/06/25 04:11:07;;;;;;;5.60;5.00;;;21.30;99.50;;;;;;5032052;28;20371;-75
2023/06/25 04:13:33;;;;;;;5.90;4.70;;;21.30;99.70;;;;;;5016013;28;21118;-75
2023/06/25 04:15:58;;;;;;;5.27;4.77;;;21.30;99.90;;;;;;5015920;28;20645;-75
2023/06/25 04:18:24;;;;;;;5.83;4.80;;;21.30;99.90;;;;;;5032852;28;20181;-74
2023/06/25 04:20:50;;;;;;;5.20;4.30;;;21.30;99.90;;;;;;5031923;28;20191;-74
2023/06/25 04:23:16;;;;;;;5.33;4.20;;;21.30;99.90;;;;;;5032530;28;20865;-74
2023/06/25 04:25:43;;;;;;;6.00;4.47;;;21.30;99.90;;;;;;5032203;28;20228;-75
2023/06/25 04:28:14;;;;;;;5.33;4.70;;;21.30;99.90;;;;;;5030864;28;20588;-74
2023/06/25 04:30:40;;;;;;;5.37;3.83;;;21.50;99.90;;;;;;5011758;28;20588;-75
2023/06/25 04:33:06;;;;;;;5.30;4.50;;;21.70;99.90;;;;;;5028901;28;20642;-75
2023/06/25 04:35:33;;;;;;;5.90;4.60;;;21.80;99.90;;;;;;5013481;28;21020;-75
2023/06/25 04:37:59;;;;;;;5.40;4.60;;;21.90;99.90;;;;;;4999623;28;21186;-75
2023/06/25 04:40:25;;;;;;;6.40;5.17;;;22.00;99.90;;;;;;5050097;28;20610;-75
2023/06/25 04:42:51;;;;;;;6.23;5.17;;;22.00;99.90;;;;;;5030964;28;20204;-75
2023/06/25 04:45:19;;;;;;;7.90;5.77;;;22.00;99.90;;;;;;5032029;28;20701;-75
2023/06/25 04:47:44;;;;;;;6.60;4.80;;;22.00;99.90;;;;;;5032021;28;20629;-74
2023/06/25 04:50:11;;;;;;;5.07;4.37;;;22.00;99.90;;;;;;5032659;28;20670;-74
2023/06/25 04:52:36;;;;;;;5.53;4.33;;;22.00;99.90;;;;;;5014346;28;20739;-74
2023/06/25 04:55:02;;;;;;;5.80;4.43;;;22.10;99.90;;;;;;5050413;28;20176;-74
2023/06/25 04:57:28;;;;;;;5.53;5.00;;;22.20;99.90;;;;;;5049716;28;20172;-74
2023/06/25 04:59:53;;;;;;;6.77;5.30;;;22.30;99.90;;;;;;5050119;28;20762;-74
2023/06/25 05:02:19;;;;;;;4.17;3.77;;;22.30;99.90;;;;;;5014610;28;20208;-74
2023/06/25 05:04:45;;;;;;;6.90;4.70;;;22.40;99.90;;;;;;5031618;28;20208;-74
2023/06/25 05:07:11;;;;;;;5.53;4.20;;;22.50;99.90;;;;;;5032341;28;20227;-74
2023/06/25 05:09:36;;;;;;;6.53;5.10;;;22.60;99.90;;;;;;5031805;28;20217;-74
2023/06/25 05:12:03;;;;;;;4.73;4.23;;;22.70;99.90;;;;;;5030953;28;21009;-74
2023/06/25 05:14:28;;;;;;;5.13;4.50;;;22.80;99.90;;;;;;5031958;28;20165;-74
2023/06/25 05:16:54;;;;;;;4.50;3.80;;;23.00;99.90;;;;;;5032239;28;20641;-75
2023/06/25 05:19:20;;;;;;;4.83;4.37;;;23.10;99.90;;;;;;5031771;28;20184;-74
2023/06/25 05:21:45;;;;;;;4.97;4.40;;;23.10;99.90;;;;;;5049158;28;20193;-74
2023/06/25 05:24:11;;;;;;;3.80;3.40;;;23.20;99.90;;;;;;5043464;28;20189;-74
2023/06/25 05:26:37;;;;;;;7.30;4.07;;;23.30;99.90;;;;;;5014940;28;20231;-74
2023/06/25 05:29:03;;;;;;;6.73;4.57;;;23.40;99.90;;;;;;5031776;28;20211;-74
2023/06/25 05:31:29;;;;;;;4.50;3.50;;;23.50;99.90;;;;;;5030197;28;20670;-74
2023/06/25 05:33:54;;;;;;;4.57;4.17;;;23.50;99.90;;;;;;5015173;28;20638;-74
2023/06/25 05:36:21;;;;;;;4.73;4.30;;;23.50;99.90;;;;;;5049282;28;20626;-74
2023/06/25 05:38:46;;;;;;;4.50;4.10;;;23.60;99.90;;;;;;5049769;28;20184;-74
2023/06/25 05:41:12;;;;;;;4.80;4.30;;;23.80;99.90;;;;;;5030648;28;20607;-74
2023/06/25 05:43:38;;;;;;;5.40;4.90;;;23.90;99.90;;;;;;5015281;28;20572;-74
2023/06/25 05:46:04;;;;;;;4.30;3.87;;;24.00;99.90;;;;;;5031098;28;20635;-74
2023/06/25 05:48:30;;;;;;;4.97;4.23;;;24.30;99.90;;;;;;5049833;28;21188;-74
2023/06/25 05:50:56;;;;;;;6.63;5.20;;;24.40;99.90;;;;;;5031440;28;20608;-75
2023/06/25 05:53:23;;;;;;;5.37;3.93;;;24.70;99.90;;;;;;5048937;28;20161;-74
2023/06/25 05:55:49;;;;;;;5.20;4.20;;;25.10;99.90;;;;;;5031334;28;20177;-74
2023/06/25 05:58:15;;;;;;;4.73;4.23;;;25.70;99.90;;;;;;5031418;28;21387;-75
2023/06/25 06:00:41;;;;;;;4.30;3.90;;;26.40;99.90;;;;;;5014670;28;21127;-74
2023/06/25 06:03:06;;;;;;;5.10;3.70;;;27.20;99.90;;;;;;5030803;28;20769;-74
2023/06/25 06:05:32;;;;;;;4.47;3.90;;;28.00;99.90;;;;;;5031245;28;20510;-74
2023/06/25 06:07:58;;;;;;;4.10;3.17;;;28.90;99.90;;;;;;4998416;28;20176;-75
2023/06/25 06:10:23;;;;;;;5.70;3.70;;;29.60;98.50;;;;;;5030955;28;20699;-75
2023/06/25 06:12:49;;;;;;;6.90;4.30;;;30.30;97.30;;;;;;5030394;28;20235;-75
2023/06/25 06:15:16;;;;;;;3.10;2.80;;;31.10;96.70;;;;;;5051741;28;20703;-75
2023/06/25 06:17:42;;;;;;;4.10;2.97;;;31.90;95.70;;;;;;5018832;28;20173;-75
2023/06/25 06:20:08;;;;;;;6.10;3.40;;;32.70;94.20;;;;;;5016325;28;20609;-75
2023/06/25 06:22:35;;;;;;;4.03;3.20;;;33.40;92.20;;;;;;5034245;28;20191;-75
2023/06/25 06:25:00;;;;;;;3.70;3.40;;;33.80;88.60;;;;;;5017941;28;20640;-75
2023/06/25 06:27:26;;;;;;;3.93;3.10;;;34.00;85.20;;;;;;5035028;28;20578;-75
2023/06/25 06:29:52;;;;;;;4.07;3.67;;;34.30;83.70;;;;;;5034779;28;20594;-75
2023/06/25 06:32:18;;;;;;;5.33;3.37;;;34.70;78.20;;;;;;5017432;28;20239;-75
2023/06/25 06:34:43;;;;;;;4.60;3.60;;;34.90;76.40;;;;;;5034807;28;20397;-75
2023/06/25 06:37:11;;;;;;;3.60;3.17;;;35.10;73.70;;;;;;5052225;28;20169;-75
2023/06/25 06:39:36;;;;;;;4.90;3.33;;;35.30;71.60;;;;;;5052842;28;20181;-75
2023/06/25 06:42:02;;;;;;;4.50;3.23;;;35.60;70.00;;;;;;5051244;28;20753;-75
2023/06/25 06:44:30;;;;;;;3.60;3.30;;;36.00;69.10;;;;;;5017704;28;20195;-75
2023/06/25 06:46:56;;;;;;;4.80;3.20;;;36.40;69.00;;;;;;5033851;28;20587;-75
2023/06/25 06:49:22;;;;;;;4.23;3.60;;;36.60;65.60;;;;;;5017690;28;21212;-75
2023/06/25 06:51:48;;;;;;;3.20;2.90;;;36.60;60.80;;;;;;5051166;28;20766;-75
2023/06/25 06:54:13;;;;;;;3.30;2.80;;;36.70;60.70;;;;;;5051912;28;20223;-75
2023/06/25 06:56:39;;;;;;;3.87;3.27;;;36.70;59.60;;;;;;5052125;28;20641;-75
2023/06/25 06:59:05;;;;;;;4.33;3.50;;;37.00;59.30;;;;;;5017320;28;20173;-74
2023/06/25 07:01:32;;;;;;;4.37;3.87;;;36.90;57.60;;;;;;5051149;28;20250;-74
2023/06/25 07:03:58;;;;;;;3.80;3.37;;;36.90;57.40;;;;;;5017124;28;20587;-74
2023/06/25 07:06:23;;;;;;;3.20;2.90;;;37.20;56.20;;;;;;5052090;28;20593;-75
2023/06/25 07:08:49;;;;;;;3.50;3.20;;;37.20;55.80;;;;;;5033675;28;20180;-73
2023/06/25 07:11:18;;;;;;;3.40;2.87;;;37.20;55.30;;;;;;5051306;28;20651;-74
2023/06/25 07:13:45;;;;;;;2.70;2.50;;;37.30;54.60;;;;;;5051606;28;20211;-74
2023/06/25 07:16:11;;;;;;;3.90;3.50;;;37.60;54.30;;;;;;5034039;28;20622;-74
2023/06/25 07:18:37;;;;;;;6.33;3.30;;;37.70;54.10;;;;;;5051817;28;20596;-73
2023/06/25 07:21:02;;;;;;;3.03;2.57;;;37.90;53.30;;;;;;5032828;28;20956;-73
2023/06/25 07:23:28;;;;;;;4.10;2.80;;;38.10;53.00;;;;;;5033770;28;20656;-73
2023/06/25 07:25:54;;;;;;;4.40;4.07;;;38.10;52.10;;;;;;5032730;28;20213;-74
2023/06/25 07:28:20;;;;;;;4.40;3.50;;;38.00;50.50;;;;;;5033584;28;20205;-73
2023/06/25 07:30:45;;;;;;;3.43;3.13;;;37.90;49.90;;;;;;5032998;28;20578;-73
2023/06/25 07:33:14;;;;;;;3.90;2.50;;;37.70;50.10;;;;;;5034259;28;20754;-73
2023/06/25 07:35:40;;;;;;;3.60;3.10;;;37.90;50.60;;;;;;5032971;28;20583;-73
2023/06/25 07:38:05;;;;;;;4.07;3.67;;;38.00;49.80;;;;;;5017717;28;20632;-74
2023/06/25 07:40:31;;;;;;;3.40;2.80;;;38.00;49.60;;;;;;5033199;28;20181;-74
2023/06/25 07:42:57;;;;;;;3.17;2.87;;;38.00;48.90;;;;;;5016676;28;20196;-74
2023/06/25 07:45:22;;;;;;;3.30;2.80;;;38.40;50.00;;;;;;5016933;28;20204;-74
2023/06/25 07:47:48;;;;;;;2.70;2.40;;;38.70;49.40;;;;;;5033141;28;20177;-74
2023/06/25 07:50:14;;;;;;;3.30;2.87;;;38.90;49.30;;;;;;5027813;28;20712;-73
2023/06/25 07:52:40;;;;;;;2.90;2.57;;;39.30;49.30;;;;;;5031224;28;20188;-73
2023/06/25 07:55:06;;;;;;;3.40;3.10;;;39.80;48.30;;;;;;5051332;28;20582;-74
2023/06/25 07:57:32;;;;;;;3.37;3.07;;;40.10;47.00;;;;;;5032449;28;20222;-74
2023/06/25 07:59:57;;;;;;;2.87;2.50;;;40.10;46.30;;;;;;5032870;28;21211;-74
2023/06/25 08:02:23;;;;;;;3.83;2.43;;;40.00;46.30;;;;;;5032146;28;20228;-74
2023/06/25 08:04:49;;;;;;;3.17;2.90;;;40.10;45.60;;;;;;5032834;28;20209;-74
2023/06/25 08:07:15;;;;;;;4.50;3.00;;;40.20;45.00;;;;;;5031335;28;20230;-74
2023/06/25 08:09:41;;;;;;;3.23;2.93;;;40.50;44.80;;;;;;5013108;28;20646;-74
2023/06/25 08:12:07;;;;;;;2.77;2.40;;;40.60;45.00;;;;;;5023684;28;20229;-74
2023/06/25 08:14:33;;;;;;;2.73;2.43;;;40.70;44.00;;;;;;5026844;28;20635;-74
2023/06/25 08:16:59;;;;;;;3.30;2.60;;;40.70;43.50;;;;;;5038135;28;21001;-74
2023/06/25 08:19:27;;;;;;;2.70;2.40;;;40.80;43.30;;;;;;5050293;28;20173;-75
2023/06/25 08:21:52;;;;;;;2.80;2.50;;;41.10;43.70;;;;;;5032285;28;20626;-74
2023/06/25 08:24:18;;;;;;;4.47;2.47;;;41.10;42.00;;;;;;5050246;28;20179;-74
2023/06/25 08:26:44;;;;;;;2.80;2.60;;;41.30;42.00;;;;;;5033089;28;20165;-75
2023/06/25 08:29:09;;;;;;;2.87;2.33;;;41.60;42.40;;;;;;5050598;28;20169;-75
2023/06/25 08:31:35;;;;;;;3.07;2.27;;;42.10;42.40;;;;;;5049084;28;20203;-75
2023/06/25 08:34:01;;;;;;;3.00;2.80;;;42.40;41.90;;;;;;5030772;28;20609;-75
2023/06/25 08:36:26;;;;;;;3.70;2.97;;;42.70;41.40;;;;;;5039824;28;20181;-74
2023/06/25 08:38:52;;;;;;;2.73;2.30;;;42.50;39.20;;;;;;5030778;28;20200;-74
2023/06/25 08:41:18;;;;;;;2.87;2.67;;;42.40;39.80;;;;;;5047560;28;20283;-74
2023/06/25 08:43:45;;;;;;;7.80;2.70;;;42.40;39.50;;;;;;5050366;28;20180;-73
2023/06/25 08:46:11;;;;;;;5.23;3.43;;;42.60;39.80;;;;;;5050284;28;20200;-75
2023/06/25 08:48:38;;;;;;;3.40;2.47;;;42.50;39.00;;;;;;5032467;28;20633;-75
2023/06/25 08:51:15;;;;;;;2.00;1.77;;;42.70;39.00;;;;;;5014992;28;20599;-75
2023/06/25 08:53:41;;;;;;;3.23;2.93;;;43.00;38.10;;;;;;5010039;28;20606;-75
2023/06/25 08:56:08;;;;;;;3.10;2.80;;;43.00;38.10;;;;;;5032075;28;20592;-74
2023/06/25 08:58:36;;;;;;;3.10;2.63;;;43.00;36.70;;;;;;5031373;28;20176;-75
2023/06/25 09:01:02;;;;;;;3.10;2.60;;;43.00;37.00;;;;;;5049503;28;20579;-75
2023/06/25 09:03:28;;;;;;;3.30;2.40;;;43.10;36.90;;;;;;5049395;28;20634;-75
2023/06/25 09:05:55;;;;;;;2.37;2.17;;;43.00;36.90;;;;;;5032138;28;20667;-74
2023/06/25 09:08:23;;;;;;;2.50;2.30;;;43.10;36.60;;;;;;5048873;28;20519;-74
2023/06/25 09:10:56;;;;;;;3.77;2.47;;;43.20;36.40;;;;;;5010518;28;20590;-75
2023/06/25 09:13:26;;;;;;;2.03;1.87;;;43.40;36.40;;;;;;5014831;28;20571;-75
2023/06/25 09:15:59;;;;;;;3.10;2.10;;;43.80;36.70;;;;;;5050144;28;20602;-75
2023/06/25 09:18:24;;;;;;;2.43;2.23;;;44.20;36.60;;;;;;5049715;28;20575;-75
2023/06/25 09:20:50;;;;;;;2.60;2.27;;;44.40;35.70;;;;;;5031112;28;20583;-74
2023/06/25 09:23:21;;;;;;;3.07;2.77;;;44.80;35.50;;;;;;5015387;28;20219;-74
2023/06/25 09:25:47;;;;;;;3.07;2.30;;;44.90;33.50;;;;;;5045470;28;20208;-74
2023/06/25 09:28:13;;;;;;;2.53;2.30;;;44.60;33.20;;;;;;5012106;28;21202;-74
2023/06/25 09:30:39;;;;;;;3.10;2.87;;;44.40;33.90;;;;;;5028939;28;20572;-74
2023/06/25 09:33:05;;;;;;;2.20;2.00;;;44.50;32.90;;;;;;5019968;28;20193;-74
2023/06/25 09:35:33;;;;;;;3.40;2.60;;;44.30;32.70;;;;;;5048981;28;20588;-74
2023/06/25 09:38:00;;;;;;;3.73;2.70;;;44.20;32.30;;;;;;5049759;28;20567;-74
2023/06/25 09:40:27;;;;;;;4.33;2.70;;;44.00;32.10;;;;;;5014619;28;20626;-74
2023/06/25 09:42:54;;;;;;;3.10;2.80;;;44.10;32.50;;;;;;5031481;28;20615;-74
2023/06/25 09:45:22;;;;;;;2.47;1.87;;;44.10;32.20;;;;;;5031759;28;20631;-74
2023/06/25 09:47:50;;;;;;;2.37;2.17;;;44.00;32.10;;;;;;5031432;28;20583;-74
2023/06/25 09:50:22;;;;;;;2.27;1.97;;;44.00;32.40;;;;;;5034858;28;20674;-74
2023/06/25 09:52:54;;;;;;;2.40;2.03;;;44.30;31.70;;;;;;5016890;28;20657;-76
2023/06/25 09:55:21;;;;;;;2.20;1.90;;;44.20;32.00;;;;;;5035505;28;20587;-75
2023/06/25 09:57:48;;;;;;;2.40;2.20;;;44.30;32.10;;;;;;5053003;28;20579;-76
2023/06/25 10:00:16;;;;;;;2.43;2.03;;;44.20;31.50;;;;;;5053549;28;20618;-76
2023/06/25 10:02:41;;;;;;;2.77;2.57;;;44.30;32.10;;;;;;5033856;28;20669;-76
2023/06/25 10:05:07;;;;;;;2.57;2.33;;;44.50;31.70;;;;;;5006549;28;20645;-76
2023/06/25 10:07:34;;;;;;;4.17;2.80;;;44.40;31.20;;;;;;5052553;28;20161;-76
2023/06/25 10:10:00;;;;;;;2.60;2.40;;;44.40;30.80;;;;;;5034915;28;20218;-76
2023/06/25 10:12:32;;;;;;;2.40;2.10;;;44.20;30.40;;;;;;5052397;28;20615;-76
2023/06/25 10:15:00;;;;;;;2.77;2.30;;;44.00;30.40;;;;;;5018676;28;20614;-75
2023/06/25 10:17:26;;;;;;;3.00;2.70;;;43.70;30.10;;;;;;5035258;28;21342;-78
2023/06/25 10:19:55;;;;;;;3.17;2.80;;;43.30;30.00;;;;;;5034878;28;20584;-77
2023/06/25 10:22:23;;;;;;;3.07;2.77;;;42.80;30.20;;;;;;5034196;28;20203;-78
2023/06/25 10:24:51;;;;;;;3.30;3.00;;;42.30;30.30;;;;;;5034309;28;20627;-78
2023/06/25 10:27:20;;;;;;;2.37;2.17;;;41.90;30.40;;;;;;5053219;28;20586;-78
2023/06/25 10:29:46;;;;;;;3.37;2.73;;;41.50;30.90;;;;;;5052386;28;20654;-78
2023/06/25 10:32:12;;;;;;;3.83;3.33;;;41.20;30.90;;;;;;5052129;28;20964;-78
2023/06/25 10:34:38;;;;;;;3.60;2.70;;;40.70;30.70;;;;;;5033735;28;20595;-79
2023/06/25 10:37:05;;;;;;;2.60;2.13;;;40.50;31.50;;;;;;5028239;28;20591;-78
2023/06/25 10:39:39;;;;;;;3.40;2.67;;;40.30;31.50;;;;;;5052867;28;20575;-78
2023/06/25 10:42:05;;;;;;;4.23;3.17;;;40.20;31.50;;;;;;5033566;28;20666;-78
2023/06/25 10:44:31;;;;;;;2.87;2.40;;;40.00;31.60;;;;;;5018385;28;20641;-79
2023/06/25 10:47:03;;;;;;;2.70;2.33;;;39.90;31.80;;;;;;5036252;28;20586;-78
2023/06/25 10:49:29;;;;;;;2.83;2.50;;;39.70;31.70;;;;;;5035029;28;20574;-78
2023/06/25 10:51:57;;;;;;;2.10;1.90;;;39.60;32.50;;;;;;5033544;28;20603;-78
2023/06/25 10:54:23;;;;;;;3.17;2.53;;;39.80;33.30;;;;;;5018012;28;20181;-78
2023/06/25 10:56:49;;;;;;;2.97;1.80;;;40.10;32.60;;;;;;5052164;28;20572;-78
2023/06/25 10:59:24;;;;;;;3.33;2.80;;;40.20;32.10;;;;;;5034187;28;20177;-79
2023/06/25 11:01:52;;;;;;;3.23;2.47;;;40.20;32.20;;;;;;5032678;28;20215;-79
2023/06/25 11:04:18;;;;;;;2.60;2.40;;;40.30;32.30;;;;;;5034295;28;21130;-79
2023/06/25 11:06:44;;;;;;;2.17;1.77;;;40.40;31.70;;;;;;5051891;28;20559;-78
2023/06/25 11:09:10;;;;;;;2.60;2.40;;;40.40;31.50;;;;;;5052157;28;20635;-79
2023/06/25 11:11:37;;;;;;;3.23;2.00;;;40.20;31.10;;;;;;5033748;28;20197;-78
2023/06/25 11:14:03;;;;;;;2.30;2.00;;;40.00;31.50;;;;;;5033299;28;20631;-79
2023/06/25 11:16:28;;;;;;;3.93;3.50;;;40.10;31.80;;;;;;5034173;28;20709;-79
2023/06/25 11:18:54;;;;;;;3.40;2.93;;;40.10;31.70;;;;;;5033482;28;20212;-79
2023/06/25 11:21:21;;;;;;;2.30;1.90;;;39.80;31.30;;;;;;5054351;28;20223;-79
2023/06/25 11:23:46;;;;;;;3.37;2.90;;;39.60;31.30;;;;;;5051527;28;20567;-78
2023/06/25 11:26:17;;;;;;;2.43;1.80;;;39.40;31.30;;;;;;5034157;28;20200;-79
2023/06/25 11:28:42;;;;;;;3.33;1.93;;;39.30;31.60;;;;;;5033407;28;20173;-79
2023/06/25 11:31:08;;;;;;;2.50;2.30;;;39.30;31.70;;;;;;5033177;28;20610;-77
2023/06/25 11:33:34;;;;;;;3.93;2.93;;;39.10;31.70;;;;;;5051631;28;20713;-76
2023/06/25 11:36:09;;;;;;;2.93;2.37;;;39.10;31.90;;;;;;5000830;28;20197;-76
2023/06/25 11:38:35;;;;;;;4.00;2.60;;;38.90;31.50;;;;;;5033443;28;20582;-76
2023/06/25 11:41:00;;;;;;;2.40;2.10;;;38.70;31.80;;;;;;5016750;28;21116;-77
2023/06/25 11:43:28;;;;;;;4.80;2.50;;;38.80;32.60;;;;;;5016790;28;20277;-76
2023/06/25 11:46:00;;;;;;;2.20;1.90;;;38.80;32.50;;;;;;5051300;28;20564;-76
2023/06/25 11:48:27;;;;;;;2.27;2.07;;;38.90;33.00;;;;;;5033650;28;20654;-76
2023/06/25 11:50:53;;;;;;;2.77;2.47;;;39.10;33.30;;;;;;5050458;28;20564;-76
2023/06/25 11:53:19;;;;;;;3.00;2.40;;;39.30;33.00;;;;;;5033261;28;20641;-76
2023/06/25 11:55:45;;;;;;;3.00;2.70;;;39.30;32.20;;;;;;5033028;28;20840;-77
2023/06/25 11:58:11;;;;;;;3.23;2.93;;;39.20;31.90;;;;;;5032968;28;20197;-76
2023/06/25 12:00:38;;;;;;;2.70;2.50;;;39.00;31.90;;;;;;5050314;28;20591;-76
2023/06/25 12:03:04;;;;;;;2.37;2.03;;;38.80;31.90;;;;;;5032961;28;21213;-76
2023/06/25 12:05:30;;;;;;;2.50;2.07;;;38.60;31.80;;;;;;5032898;28;20584;-76
2023/06/25 12:07:55;;;;;;;3.00;2.17;;;38.30;31.80;;;;;;5051208;28;20164;-76
2023/06/25 12:10:21;;;;;;;3.57;2.13;;;38.20;32.10;;;;;;5033142;28;20196;-76
2023/06/25 12:12:47;;;;;;;2.80;2.60;;;38.20;33.00;;;;;;5048644;28;20563;-76
2023/06/25 12:15:13;;;;;;;3.67;2.67;;;38.00;32.30;;;;;;5032994;28;20695;-76
2023/06/25 12:17:38;;;;;;;2.70;2.40;;;37.90;32.80;;;;;;5051012;28;20568;-76
2023/06/25 12:20:05;;;;;;;2.87;2.27;;;37.80;32.80;;;;;;5051071;28;20242;-76
2023/06/25 12:22:30;;;;;;;2.53;2.33;;;37.70;32.60;;;;;;5031607;28;20204;-78
2023/06/25 12:24:56;;;;;;;2.93;2.33;;;37.50;32.60;;;;;;5033244;28;20579;-76
2023/06/25 12:27:21;;;;;;;2.77;2.50;;;37.20;32.50;;;;;;5032450;28;20185;-75
2023/06/25 12:29:47;;;;;;;2.47;2.00;;;37.00;32.70;;;;;;5050580;28;20250;-76
2023/06/25 12:32:13;;;;;;;2.77;2.57;;;37.00;33.80;;;;;;5031608;28;20675;-76
2023/06/25 12:34:38;;;;;;;3.70;2.20;;;37.00;33.10;;;;;;5050554;28;20254;-75
2023/06/25 12:37:04;;;;;;;2.87;2.20;;;36.90;33.00;;;;;;5032595;28;20215;-76
2023/06/25 12:39:30;;;;;;;2.70;2.23;;;36.90;33.10;;;;;;5032573;28;20215;-76
2023/06/25 12:41:55;;;;;;;2.77;2.30;;;36.70;33.00;;;;;;5031544;28;20563;-76
2023/06/25 12:44:22;;;;;;;2.90;2.40;;;36.70;32.90;;;;;;5032220;28;20177;-76